Suvarnabhumi Airport
VTBS : now visible

Airfield :











YOU CAN JOIN US ON...

 
LOGIN :

Register | Disclaimer

   EN    FR    IT 

 









Legend :    VFR   Marginal VFR   IFR   Intensive IFR   Very Intensive IFR
Visi :
Ceiling :
>= 8 km
>= 3000ft
5 to 8 km
1000 to 3000 ft
1500m to 5 km
500 to 1000 ft
800 to 1500m
200 to 500 ft
< 800m
< 200 ft
Symbols :   Thunderstorms  Fog  Heavy snow  Heavy precipitations  Wind > 20 kt






- Airport Elevation : 5 ft
- IATA code : BKK


VTBS - Suvarnabhumi

CURRENT METAR :
  • 190230Z 23005KT 180V280 9999 FEW020 32/22 Q1008 NOSIG

EXPIRED METARs :
  • 190200Z 22004KT 150V260 9999 FEW020 31/22 Q1008 NOSIG
  • 190130Z 27004KT 230V300 9999 FEW020 31/22 Q1007 NOSIG
  • 190100Z 24005KT 9999 FEW020 30/22 Q1007 NOSIG
  • 190030Z 22005KT 9999 FEW020 30/22 Q1007 NOSIG
  • 190000Z 26003KT 9999 FEW020 29/23 Q1007 NOSIG
  • 182330Z VRB02KT 9999 FEW020 28/23 Q1007 NOSIG
  • 182300Z 25003KT 9999 FEW020 28/22 Q1006 NOSIG
  • 182230Z 27002KT 9999 FEW020 28/23 Q1006 NOSIG
  • 182200Z 28002KT 9999 FEW020 28/22 Q1006 NOSIG

TAF TAF VTBS
Valid from the 19 at 00:00 until the 20 at 06:00 UTC


182300Z 1900/2006 21008KT 9999 FEW020
VTBB FIR / Asia



MET'MAP, your aeronautical weather chart ! - Copyright ORBIFLY December 2007 - Disclaimer

ORBIFLY MET'MAP TEAM :

Programming & Development : Alexandra Zaïnal
Original concept : Baudouin d'Aumeries
Technical & hardware support : Manuel Goepfert
Assistance : Marc-Olivier Méhu




SOURCES & CREDITS :

   NOAA       Earth
Advisory